createdAt,value
2022-10-19T00:00:39.997Z,95385.78
2022-10-19T00:01:41.641Z,95380.72
2022-10-19T00:02:43.211Z,95385.03
2022-10-19T00:03:46.837Z,95382.97
2022-10-19T00:04:48.437Z,95386.53
2022-10-19T00:05:49.975Z,95380.19
2022-10-19T00:06:51.486Z,95380.19
2022-10-19T00:07:54.560Z,95377.94
2022-10-19T00:09:01.386Z,95377.16
2022-10-19T00:10:04.447Z,95369.00
2022-10-19T00:11:06.094Z,95377.16
2022-10-19T00:12:07.670Z,95371.56
2022-10-19T00:13:09.213Z,95378.69
2022-10-19T00:14:20.016Z,95374.16
2022-10-19T00:15:21.554Z,95369.53
2022-10-19T00:16:24.374Z,95374.34
2022-10-19T00:17:25.917Z,95365.97
2022-10-19T00:18:27.588Z,95361.16
2022-10-19T00:19:29.336Z,95365.22
2022-10-19T00:20:30.869Z,95366.50
2022-10-19T00:21:33.328Z,95363.53
2022-10-19T00:22:35.021Z,95362.75
2022-10-19T00:23:36.856Z,95361.25
2022-10-19T00:24:38.444Z,95364.03
2022-10-19T00:25:39.949Z,95364.03
2022-10-19T00:26:41.972Z,95338.66
2022-10-19T00:27:43.544Z,95357.69
2022-10-19T00:28:45.507Z,95349.53
2022-10-19T00:29:47.088Z,95346.72
2022-10-19T00:31:51.994Z,95344.69
2022-10-19T00:32:53.541Z,95339.09
2022-10-19T00:33:56.869Z,95337.78
2022-10-19T00:34:58.458Z,95340.34
2022-10-19T00:36:00.323Z,95331.97
2022-10-19T00:37:01.943Z,95336.06
2022-10-19T00:38:03.459Z,95333.50
2022-10-19T00:39:07.662Z,95322.31
2022-10-19T00:40:09.865Z,95329.41
2022-10-19T00:41:11.743Z,95335.00
2022-10-19T00:42:13.285Z,95322.50
2022-10-19T00:43:16.461Z,95328.09
2022-10-19T00:44:17.991Z,95324.00
2022-10-19T00:45:19.549Z,95321.22
2022-10-19T00:46:22.026Z,95317.66
2022-10-19T00:47:24.614Z,95320.69
2022-10-19T00:48:30.529Z,95322.75
2022-10-19T00:49:35.859Z,95317.16
2022-10-19T00:50:37.916Z,95312.31
2022-10-19T00:51:47.212Z,95315.19
2022-10-19T00:52:48.831Z,95316.16
2022-10-19T00:53:50.874Z,95312.63
2022-10-19T00:54:55.316Z,95308.53
2022-10-19T00:55:58.539Z,95313.38
2022-10-19T00:57:00.518Z,95315.41
2022-10-19T00:58:03.165Z,95307.78
2022-10-19T00:59:05.922Z,95306.78
2022-10-19T01:00:09.029Z,95310.56
2022-10-19T01:01:16.410Z,95304.78
2022-10-19T01:02:18.129Z,95304.44
2022-10-19T01:03:20.816Z,95301.63
2022-10-19T01:04:24.571Z,95301.44
2022-10-19T01:05:27.575Z,95298.63
2022-10-19T01:06:29.522Z,95296.59
2022-10-19T01:07:31.236Z,95298.63
2022-10-19T01:08:32.939Z,95288.75
2022-10-19T01:09:35.051Z,95292.06
2022-10-19T01:10:57.326Z,95286.78
2022-10-19T01:12:04.532Z,95285.72
2022-10-19T01:13:12.079Z,95285.41
2022-10-19T01:14:14.561Z,95278.50
2022-10-19T01:17:20.641Z,95283.16
2022-10-19T01:18:49.700Z,95277.56
2022-10-19T01:20:07.972Z,95277.56
2022-10-19T01:21:09.502Z,95279.47
2022-10-19T01:22:41.543Z,95281.63
2022-10-19T01:24:02.842Z,95276.03
2022-10-19T01:25:41.434Z,95275.09
2022-10-19T01:27:10.781Z,95276.38
2022-10-19T01:28:18.736Z,95273.47
2022-10-19T01:29:41.868Z,95277.56
2022-10-19T01:30:58.526Z,95269.38
2022-10-19T01:32:19.348Z,95270.66
2022-10-19T01:33:35.908Z,95273.66
2022-10-19T01:34:55.906Z,95271.22
2022-10-19T01:36:16.041Z,95264.41
2022-10-19T01:37:20.879Z,95264.84
2022-10-19T01:38:43.096Z,95261.84
2022-10-19T01:39:59.085Z,95264.84
2022-10-19T01:41:18.156Z,95268.00
2022-10-19T01:42:36.857Z,95258.06
2022-10-19T01:44:01.366Z,95259.94
2022-10-19T01:45:08.012Z,95264.41
2022-10-19T01:46:18.176Z,95258.63
2022-10-19T01:47:26.702Z,95264.97
2022-10-19T01:48:35.500Z,95256.91
2022-10-19T01:49:54.214Z,95257.13
2022-10-19T01:51:17.064Z,95256.16
2022-10-19T01:52:20.975Z,95254.53
2022-10-19T01:53:24.505Z,95256.91
2022-10-19T01:54:30.928Z,95252.81
2022-10-19T01:55:34.120Z,95248.50
2022-10-19T01:56:37.765Z,95250.00
2022-10-19T01:57:46.154Z,95258.72
2022-10-19T01:58:49.555Z,95261.00
2022-10-19T01:59:52.621Z,95250.88
2022-10-19T02:00:57.596Z,95252.19
2022-10-19T02:01:59.243Z,95252.38
2022-10-19T02:03:01.708Z,95249.59
2022-10-19T02:04:04.213Z,95250.88
2022-10-19T02:05:07.590Z,95252.38
2022-10-19T02:06:11.532Z,95250.34
2022-10-19T02:07:13.344Z,95244.75
2022-10-19T02:08:20.573Z,95251.63
2022-10-19T02:09:22.363Z,95246.59
2022-10-19T02:10:25.793Z,95248.09
2022-10-19T02:11:28.612Z,95249.59
2022-10-19T02:12:33.750Z,95247.34
2022-10-19T02:13:37.526Z,95244.75
2022-10-19T02:14:44.328Z,95245.28
2022-10-19T02:15:49.905Z,95243.78
2022-10-19T02:16:59.306Z,95241.53
2022-10-19T02:18:02.514Z,95249.59
2022-10-19T02:19:08.532Z,95246.78
2022-10-19T02:20:10.162Z,95242.28
2022-10-19T02:21:11.844Z,95242.28
2022-10-19T02:22:13.801Z,95240.03
2022-10-19T02:23:20.695Z,95241.53
2022-10-19T02:24:22.372Z,95231.53
2022-10-19T02:25:25.213Z,95236.91
2022-10-19T02:26:27.283Z,95233.34
2022-10-19T02:27:29.122Z,95236.69
2022-10-19T02:28:31.308Z,95239.69
2022-10-19T02:29:34.428Z,95241.00
2022-10-19T02:30:35.999Z,95239.69
2022-10-19T02:31:38.443Z,95235.94
2022-10-19T02:32:40.572Z,95246.91
2022-10-19T02:33:42.293Z,95242.63
2022-10-19T02:34:43.935Z,95236.69
2022-10-19T02:35:46.131Z,95237.44
2022-10-19T02:36:47.732Z,95241.00
2022-10-19T02:37:49.483Z,95241.00
2022-10-19T02:38:51.129Z,95243.78
2022-10-19T02:39:52.769Z,95240.78
2022-10-19T02:41:05.013Z,95239.28
2022-10-19T02:42:17.964Z,95244.59
2022-10-19T02:43:23.111Z,95248.22
2022-10-19T02:44:33.962Z,95243.38
2022-10-19T02:45:40.243Z,95244.88
2022-10-19T02:46:45.496Z,95240.78
2022-10-19T02:47:54.754Z,95250.19
2022-10-19T02:48:58.058Z,95246.38
2022-10-19T02:50:00.050Z,95239.28
2022-10-19T02:51:01.619Z,95241.31
2022-10-19T02:52:08.059Z,95243.13
2022-10-19T02:53:09.663Z,95240.31
2022-10-19T02:54:11.167Z,95235.47
2022-10-19T02:55:12.707Z,95239.56
2022-10-19T02:56:14.231Z,95236.03
2022-10-19T02:57:20.087Z,95231.72
2022-10-19T02:58:21.862Z,95236.22
2022-10-19T02:59:23.999Z,95228.63
2022-10-19T03:00:25.546Z,95237.78
2022-10-19T03:01:27.392Z,95234.97
2022-10-19T03:02:28.958Z,95229.88
2022-10-19T03:03:30.521Z,95226.88
2022-10-19T03:04:32.096Z,95231.72
2022-10-19T03:05:33.624Z,95224.63
2022-10-19T03:06:35.169Z,95230.19
2022-10-19T03:07:37.044Z,95225.38
2022-10-19T03:08:38.942Z,95237.31
2022-10-19T03:09:41.272Z,95230.97
2022-10-19T03:10:42.801Z,95231.50
2022-10-19T03:11:44.315Z,95234.28
2022-10-19T03:12:45.883Z,95242.69
2022-10-19T03:14:53.940Z,95232.06
2022-10-19T03:15:55.480Z,95232.81
2022-10-19T03:16:57.002Z,95238.41
2022-10-19T03:17:58.553Z,95234.28
2022-10-19T03:19:00.089Z,95235.59
2022-10-19T03:20:01.607Z,95232.06
2022-10-19T03:21:05.933Z,95234.84
2022-10-19T03:22:07.528Z,95228.72
2022-10-19T03:23:09.063Z,95231.50
2022-10-19T03:24:10.606Z,95235.78
2022-10-19T03:25:12.117Z,95237.09
2022-10-19T03:26:16.114Z,95236.91
2022-10-19T03:27:17.637Z,95239.38
2022-10-19T03:28:19.157Z,95239.16
2022-10-19T03:29:20.671Z,95231.06
2022-10-19T03:30:22.217Z,95233.88
2022-10-19T03:31:23.831Z,95233.66
2022-10-19T03:32:25.341Z,95231.63
2022-10-19T03:33:26.923Z,95229.78
2022-10-19T03:34:28.499Z,95229.78
2022-10-19T03:35:30.044Z,95227.72
2022-10-19T03:36:34.010Z,95226.78
2022-10-19T03:37:35.871Z,95222.13
2022-10-19T03:38:37.604Z,95221.38
2022-10-19T03:39:39.151Z,95219.34
2022-10-19T03:40:40.725Z,95225.72
2022-10-19T03:41:42.418Z,95220.13
2022-10-19T03:42:44.173Z,95222.69
2022-10-19T03:43:45.837Z,95228.28
2022-10-19T03:44:47.359Z,95224.94
2022-10-19T03:45:48.894Z,95217.09
2022-10-19T03:46:50.413Z,95219.91
2022-10-19T03:47:52.593Z,95217.09
2022-10-19T03:48:54.806Z,95229.34
2022-10-19T03:49:56.329Z,95223.75
2022-10-19T03:51:02.209Z,95225.06
2022-10-19T03:52:04.004Z,95225.28
2022-10-19T03:53:05.536Z,95226.78
2022-10-19T03:54:12.298Z,95218.41
2022-10-19T03:55:13.848Z,95219.91
2022-10-19T03:56:20.018Z,95221.38
2022-10-19T03:57:21.682Z,95214.31
2022-10-19T03:58:23.193Z,95210.00
2022-10-19T03:59:24.887Z,95219.69
2022-10-19T04:00:26.476Z,95219.69
2022-10-19T04:01:34.241Z,95220.22
2022-10-19T04:02:35.797Z,95219.69
2022-10-19T04:03:37.627Z,95222.69
2022-10-19T04:04:39.175Z,95222.69
2022-10-19T04:05:40.673Z,95214.31
2022-10-19T04:06:44.974Z,95220.13
2022-10-19T04:07:46.525Z,95210.44
2022-10-19T04:08:49.356Z,95212.47
2022-10-19T04:09:50.877Z,95216.03
2022-10-19T04:10:52.621Z,95221.63
2022-10-19T04:11:54.263Z,95211.94
2022-10-19T04:12:55.808Z,95217.53
2022-10-19T04:13:58.583Z,95217.53
2022-10-19T04:15:00.241Z,95213.22
2022-10-19T04:16:02.573Z,95215.47
2022-10-19T04:17:04.589Z,95210.44
2022-10-19T04:18:06.148Z,95211.50
2022-10-19T04:19:08.552Z,95212.25
2022-10-19T04:20:10.480Z,95211.50
2022-10-19T04:21:21.150Z,95218.16
2022-10-19T04:22:22.711Z,95207.41
2022-10-19T04:23:26.896Z,95199.03
2022-10-19T04:24:28.960Z,95201.81
2022-10-19T04:25:30.489Z,95199.03
2022-10-19T04:26:33.410Z,95197.75
2022-10-19T04:27:35.221Z,95192.91
2022-10-19T04:28:37.124Z,95197.94
2022-10-19T04:29:38.707Z,95196.47
2022-10-19T04:30:40.215Z,95192.16
2022-10-19T04:31:41.942Z,95196.22
2022-10-19T04:32:43.447Z,95202.56
2022-10-19T04:34:51.530Z,95194.97
2022-10-19T04:36:01.810Z,95193.75
2022-10-19T04:37:03.418Z,95191.94
2022-10-19T04:38:04.947Z,95193.44
2022-10-19T04:39:07.108Z,95194.72
2022-10-19T04:40:14.166Z,95185.03
2022-10-19T04:41:19.199Z,95190.63
2022-10-19T04:42:20.765Z,95190.63
2022-10-19T04:43:22.805Z,95193.66
2022-10-19T04:45:31.422Z,95194.97
2022-10-19T04:46:33.399Z,95194.41
2022-10-19T04:47:35.111Z,95197.75
2022-10-19T04:48:38.804Z,95197.75
2022-10-19T04:49:40.315Z,95204.09
2022-10-19T04:50:41.879Z,95194.97
2022-10-19T04:51:43.466Z,95199.03
2022-10-19T04:52:45.680Z,95205.03
2022-10-19T04:53:48.072Z,95198.19
2022-10-19T04:54:49.565Z,95198.63
2022-10-19T04:55:51.143Z,95209.06
2022-10-19T04:56:53.923Z,95202.66
2022-10-19T04:57:55.549Z,95204.53
2022-10-19T04:58:58.682Z,95206.34
2022-10-19T05:00:00.185Z,95210.84
2022-10-19T05:01:13.325Z,95206.16
2022-10-19T05:02:15.012Z,95206.56
2022-10-19T05:03:17.558Z,95211.19
2022-10-19T05:04:19.124Z,95206.16
2022-10-19T05:05:20.640Z,95206.88
2022-10-19T05:06:22.135Z,95208.94
2022-10-19T05:07:23.752Z,95208.94
2022-10-19T05:08:25.286Z,95200.31
2022-10-19T05:09:26.799Z,95207.63
2022-10-19T05:10:28.451Z,95197.53
2022-10-19T05:11:30.006Z,95200.31
2022-10-19T05:12:31.548Z,95203.13
2022-10-19T05:13:33.587Z,95202.91
2022-10-19T05:14:36.793Z,95205.16
2022-10-19T05:15:40.650Z,95201.63
2022-10-19T05:16:42.207Z,95193.22
2022-10-19T05:17:43.889Z,95195.47
2022-10-19T05:18:50.876Z,95195.81
2022-10-19T05:19:52.450Z,95196.22
2022-10-19T05:21:10.802Z,95189.69
2022-10-19T05:22:12.382Z,95190.63
2022-10-19T05:23:13.906Z,95190.13
2022-10-19T05:24:15.485Z,95193.66
2022-10-19T05:25:17.461Z,95188.06
2022-10-19T05:26:21.395Z,95186.25
2022-10-19T05:27:23.045Z,95192.78
2022-10-19T05:28:24.566Z,95188.41
2022-10-19T05:29:26.110Z,95187.88
2022-10-19T05:30:27.677Z,95189.59
2022-10-19T05:31:31.541Z,95191.84
2022-10-19T05:32:33.112Z,95194.09
2022-10-19T05:33:34.732Z,95193.56
2022-10-19T05:34:36.239Z,95196.56
2022-10-19T05:35:37.745Z,95197.28
2022-10-19T05:36:40.830Z,95200.09
2022-10-19T05:37:42.427Z,95201.94
2022-10-19T05:38:45.951Z,95195.81
2022-10-19T05:39:47.671Z,95196.56
2022-10-19T05:40:52.958Z,95197.28
2022-10-19T05:41:55.355Z,95196.78
2022-10-19T05:42:56.951Z,95199.34
2022-10-19T05:44:01.023Z,95199.34
2022-10-19T05:45:02.547Z,95197.84
2022-10-19T05:46:06.039Z,95197.28
2022-10-19T05:47:07.638Z,95195.59
2022-10-19T05:48:09.210Z,95199.66
2022-10-19T05:49:12.182Z,95197.44
2022-10-19T05:50:13.703Z,95200.97
2022-10-19T05:51:18.221Z,95209.16
2022-10-19T05:52:19.760Z,95211.97
2022-10-19T05:53:21.493Z,95204.66
2022-10-19T05:54:26.310Z,95196.25
2022-10-19T05:55:29.947Z,95205.41
2022-10-19T05:56:32.537Z,95192.72
2022-10-19T05:57:34.319Z,95203.13
2022-10-19T05:58:36.101Z,95206.16
2022-10-19T05:59:37.687Z,95200.56
2022-10-19T06:00:39.737Z,95200.31
2022-10-19T06:01:41.374Z,95203.91
2022-10-19T06:02:42.914Z,95211.31
2022-10-19T06:03:45.123Z,95204.41
2022-10-19T06:04:46.658Z,95202.19
2022-10-19T06:05:52.764Z,95202.66
2022-10-19T06:06:54.317Z,95204.22
2022-10-19T06:07:55.869Z,95205.91
2022-10-19T06:08:59.022Z,95208.72
2022-10-19T06:10:00.566Z,95204.97
2022-10-19T06:11:13.644Z,95207.22
2022-10-19T06:12:16.346Z,95207.22
2022-10-19T06:13:20.061Z,95215.09
2022-10-19T06:14:21.589Z,95216.91
2022-10-19T06:15:23.112Z,95218.41
2022-10-19T06:16:26.834Z,95221.00
2022-10-19T06:17:29.108Z,95221.50
2022-10-19T06:18:30.778Z,95219.25
2022-10-19T06:19:32.425Z,95229.38
2022-10-19T06:20:38.049Z,95227.09
2022-10-19T06:21:41.981Z,95225.03
2022-10-19T06:22:46.476Z,95222.03
2022-10-19T06:23:52.738Z,95224.84
2022-10-19T06:24:54.334Z,95232.19
2022-10-19T06:25:55.904Z,95229.38
2022-10-19T06:26:57.459Z,95234.97
2022-10-19T06:27:59.805Z,95230.63
2022-10-19T06:29:02.460Z,95236.22
2022-10-19T06:30:04.408Z,95230.13
2022-10-19T06:31:08.499Z,95225.50
2022-10-19T06:32:11.101Z,95225.84
2022-10-19T06:33:12.642Z,95228.09
2022-10-19T06:34:14.289Z,95223.53
2022-10-19T06:35:16.205Z,95224.84
2022-10-19T06:36:20.403Z,95235.47
2022-10-19T06:37:21.939Z,95231.44
2022-10-19T06:38:23.455Z,95229.13
2022-10-19T06:39:25.006Z,95225.03
2022-10-19T06:40:26.634Z,95234.72
2022-10-19T06:41:29.377Z,95223.53
2022-10-19T06:42:30.890Z,95225.59
2022-10-19T06:43:32.975Z,95227.63
2022-10-19T06:44:34.539Z,95224.84
2022-10-19T06:45:39.108Z,95222.03
2022-10-19T06:46:40.672Z,95223.53
2022-10-19T06:48:58.844Z,95221.19
2022-10-19T06:50:00.698Z,95224.00
2022-10-19T06:51:06.398Z,95219.44
2022-10-19T06:52:08.249Z,95223.03
2022-10-19T06:53:10.149Z,95216.16
2022-10-19T06:54:11.758Z,95208.25
2022-10-19T06:55:13.385Z,95212.59
2022-10-19T06:56:15.030Z,95207.78
2022-10-19T06:57:16.576Z,95206.75
2022-10-19T06:58:18.221Z,95214.09
2022-10-19T06:59:19.813Z,95205.72
2022-10-19T07:00:21.337Z,95208.25
2022-10-19T07:01:23.083Z,95198.63
2022-10-19T07:02:24.681Z,95197.34
2022-10-19T07:03:28.099Z,95196.59
2022-10-19T07:04:29.629Z,95193.03
2022-10-19T07:05:31.164Z,95191.75
2022-10-19T07:06:32.750Z,95200.13
2022-10-19T07:07:34.957Z,95197.88
2022-10-19T07:08:38.894Z,95191.00
2022-10-19T07:09:40.469Z,95197.53
2022-10-19T07:10:42.002Z,95191.47
2022-10-19T07:11:46.068Z,95196.34
2022-10-19T07:12:47.850Z,95200.13
2022-10-19T07:13:49.498Z,95190.44
2022-10-19T07:14:51.186Z,95199.88
2022-10-19T07:16:02.699Z,95196.66
2022-10-19T07:17:07.949Z,95190.00
2022-10-19T07:18:09.471Z,95188.19
2022-10-19T07:19:11.749Z,95194.84
2022-10-19T07:20:13.269Z,95199.69
2022-10-19T07:21:16.349Z,95193.34
2022-10-19T07:22:22.206Z,95206.00
2022-10-19T07:23:28.769Z,95200.88
2022-10-19T07:24:30.330Z,95193.25
2022-10-19T07:25:31.977Z,95188.94
2022-10-19T07:26:33.877Z,95190.44
2022-10-19T07:27:37.816Z,95193.97
2022-10-19T07:28:40.878Z,95195.28
2022-10-19T07:29:42.527Z,95181.31
2022-10-19T07:30:44.044Z,95188.94
2022-10-19T07:31:45.605Z,95186.34
2022-10-19T07:32:47.303Z,95187.88
2022-10-19T07:33:53.788Z,95184.66
2022-10-19T07:34:55.423Z,95181.53
2022-10-19T07:36:01.725Z,95193.47
2022-10-19T07:37:03.353Z,95189.38
2022-10-19T07:38:04.926Z,95185.28
2022-10-19T07:39:07.897Z,95186.78
2022-10-19T07:40:10.161Z,95179.69
2022-10-19T07:41:14.717Z,95185.28
2022-10-19T07:42:16.361Z,95177.84
2022-10-19T07:43:17.982Z,95171.50
2022-10-19T07:44:19.529Z,95179.91
2022-10-19T07:45:21.807Z,95174.31
2022-10-19T07:46:26.254Z,95173.34
2022-10-19T07:47:27.826Z,95174.84
2022-10-19T07:48:29.835Z,95165.91
2022-10-19T07:49:31.375Z,95165.91
2022-10-19T07:50:32.911Z,95166.13
2022-10-19T07:51:34.481Z,95166.66
2022-10-19T07:52:37.055Z,95158.47
2022-10-19T07:53:39.612Z,95150.88
2022-10-19T07:54:41.326Z,95152.88
2022-10-19T07:55:43.341Z,95152.34
2022-10-19T07:56:44.871Z,95149.56
2022-10-19T07:57:50.254Z,95147.84
2022-10-19T07:58:54.025Z,95152.56
2022-10-19T07:59:55.602Z,95156.66
2022-10-19T08:01:02.382Z,95148.06
2022-10-19T08:02:05.026Z,95148.25
2022-10-19T08:04:59.415Z,95146.97
2022-10-19T08:05:49.689Z,95146.97
2022-10-19T08:06:51.264Z,95153.84
2022-10-19T08:07:52.810Z,95142.66
2022-10-19T08:08:55.511Z,95147.28
2022-10-19T08:09:57.131Z,95148.06
2022-10-19T08:11:06.043Z,95143.22
2022-10-19T08:12:11.159Z,95142.88
2022-10-19T08:13:15.468Z,95154.06
2022-10-19T08:14:17.070Z,95149.97
2022-10-19T08:15:18.825Z,95142.13
2022-10-19T08:16:41.659Z,95150.09
2022-10-19T08:17:43.409Z,95141.38
2022-10-19T08:18:44.962Z,95143.09
2022-10-19T08:19:47.050Z,95151.16
2022-10-19T08:20:49.915Z,95147.78
2022-10-19T08:21:51.459Z,95147.03
2022-10-19T08:22:56.489Z,95142.97
2022-10-19T08:24:00.902Z,95142.41
2022-10-19T08:25:02.543Z,95142.41
2022-10-19T08:26:04.125Z,95138.13
2022-10-19T08:27:05.731Z,95138.88
2022-10-19T08:28:07.303Z,95137.91
2022-10-19T08:29:13.085Z,95126.53
2022-10-19T08:30:14.657Z,95134.16
2022-10-19T08:31:19.394Z,95126.53
2022-10-19T08:32:21.033Z,95131.00
2022-10-19T08:33:22.592Z,95135.09
2022-10-19T08:34:24.315Z,95122.44
2022-10-19T08:35:25.860Z,95133.63
2022-10-19T08:36:31.245Z,95129.09
2022-10-19T08:37:44.053Z,95128.91
2022-10-19T08:38:48.455Z,95123.72
2022-10-19T08:39:49.989Z,95131.56
2022-10-19T08:40:51.569Z,95118.13
2022-10-19T08:42:03.688Z,95123.16
2022-10-19T08:43:26.674Z,95119.78
2022-10-19T08:45:00.861Z,95122.56
2022-10-19T08:46:24.842Z,95123.09
2022-10-19T08:47:41.774Z,95115.25
2022-10-19T08:48:43.747Z,95112.66
2022-10-19T08:49:46.866Z,95116.00
2022-10-19T08:50:48.845Z,95114.50
2022-10-19T08:51:57.673Z,95105.16
2022-10-19T08:53:03.775Z,95114.69
2022-10-19T08:54:12.989Z,95106.31
2022-10-19T08:55:20.694Z,95114.94
2022-10-19T08:56:50.623Z,95114.69
2022-10-19T08:57:58.155Z,95114.38
2022-10-19T08:59:29.117Z,95109.31
2022-10-19T09:00:42.694Z,95115.34
2022-10-19T09:01:54.380Z,95105.78
2022-10-19T09:03:11.270Z,95105.97
2022-10-19T09:04:36.571Z,95113.63
2022-10-19T09:05:45.654Z,95103.75
2022-10-19T09:07:17.082Z,95110.41
2022-10-19T09:08:19.867Z,95104.81
2022-10-19T09:09:21.458Z,95112.66
2022-10-19T09:10:28.705Z,95108.34
2022-10-19T09:11:36.832Z,95104.41
2022-10-19T09:12:47.981Z,95100.53
2022-10-19T09:14:04.829Z,95101.78
2022-10-19T09:15:31.914Z,95097.72
2022-10-19T09:16:35.023Z,95098.88
2022-10-19T09:17:36.744Z,95104.69
2022-10-19T09:18:38.642Z,95111.38
2022-10-19T09:19:40.276Z,95100.38
2022-10-19T09:20:45.762Z,95105.00
2022-10-19T09:21:51.606Z,95109.31
2022-10-19T09:23:03.797Z,95109.31
2022-10-19T09:24:09.737Z,95108.03
2022-10-19T09:25:20.052Z,95107.81
2022-10-19T09:26:25.604Z,95097.81
2022-10-19T09:27:35.591Z,95102.63
2022-10-19T09:28:39.785Z,95099.31
2022-10-19T09:29:48.039Z,95095.53
2022-10-19T09:30:52.227Z,95109.00
2022-10-19T09:31:59.795Z,95106.72
2022-10-19T09:33:02.320Z,95101.13
2022-10-19T09:34:12.914Z,95102.22
2022-10-19T09:35:31.399Z,95108.59
2022-10-19T09:36:50.761Z,95103.75
2022-10-19T09:37:53.543Z,95104.69
2022-10-19T09:38:55.094Z,95095.75
2022-10-19T09:39:56.873Z,95104.91
2022-10-19T09:41:07.538Z,95109.75
2022-10-19T09:42:24.553Z,95105.00
2022-10-19T09:43:28.223Z,95108.22
2022-10-19T09:44:30.909Z,95112.72
2022-10-19T09:45:47.873Z,95109.53
2022-10-19T09:47:17.470Z,95109.53
2022-10-19T09:48:38.142Z,95101.47
2022-10-19T09:49:45.169Z,95104.69
2022-10-19T09:50:55.469Z,95108.22
2022-10-19T09:51:56.992Z,95100.59
2022-10-19T09:53:02.755Z,95108.22
2022-10-19T09:54:04.308Z,95103.41
2022-10-19T09:55:28.342Z,95103.75
2022-10-19T09:56:29.888Z,95104.16
2022-10-19T09:57:31.936Z,95094.47
2022-10-19T09:58:35.229Z,95095.75
2022-10-19T09:59:37.337Z,95102.09
2022-10-19T10:00:45.117Z,95097.03
2022-10-19T10:01:46.690Z,95101.13
2022-10-19T10:02:55.757Z,95092.56
2022-10-19T10:04:18.274Z,95100.72
2022-10-19T10:05:20.634Z,95090.16
2022-10-19T10:06:22.586Z,95094.47
2022-10-19T10:07:33.053Z,95090.69
2022-10-19T10:08:38.718Z,95092.75
2022-10-19T10:09:43.388Z,95082.53
2022-10-19T10:10:47.676Z,95088.88
2022-10-19T10:11:51.359Z,95089.28
2022-10-19T10:12:53.878Z,95083.47
2022-10-19T10:13:57.624Z,95085.72
2022-10-19T10:14:59.302Z,95083.69
2022-10-19T10:16:03.995Z,95078.66
2022-10-19T10:17:16.789Z,95074.66
2022-10-19T10:18:19.336Z,95071.00
2022-10-19T10:19:27.268Z,95067.13
2022-10-19T10:20:32.481Z,95056.47
2022-10-19T10:21:45.238Z,95063.34
2022-10-19T10:23:22.917Z,95054.97
2022-10-19T10:24:32.075Z,95059.66
2022-10-19T10:25:36.343Z,95061.94
2022-10-19T10:26:41.256Z,95056.13
2022-10-19T10:27:42.794Z,95058.72
2022-10-19T10:28:49.822Z,95054.63
2022-10-19T10:31:06.253Z,95050.53
2022-10-19T10:32:21.574Z,95045.69
2022-10-19T10:33:40.695Z,95043.63
2022-10-19T10:35:01.233Z,95044.75
2022-10-19T10:36:09.912Z,95038.03
2022-10-19T10:37:20.341Z,95048.28
2022-10-19T10:38:26.490Z,95034.84
2022-10-19T10:39:29.181Z,95037.84
2022-10-19T10:40:31.568Z,95032.25
2022-10-19T10:41:43.388Z,95030.94
2022-10-19T10:42:47.624Z,95028.16
2022-10-19T10:44:06.637Z,95025.34
2022-10-19T10:45:22.184Z,95022.91
2022-10-19T10:46:28.761Z,95020.66
2022-10-19T10:47:30.984Z,95023.63
2022-10-19T10:48:40.933Z,95027.34
2022-10-19T10:49:43.294Z,95023.44
2022-10-19T10:50:45.245Z,95014.31
2022-10-19T10:51:53.040Z,95022.16
2022-10-19T10:53:07.016Z,95018.72
2022-10-19T10:54:17.679Z,95014.31
2022-10-19T10:55:19.397Z,95011.94
2022-10-19T10:56:27.649Z,95013.00
2022-10-19T10:57:36.045Z,95003.88
2022-10-19T10:59:10.189Z,95010.22
2022-10-19T11:00:19.096Z,95005.78
2022-10-19T11:01:23.747Z,95002.97
2022-10-19T11:03:29.222Z,95000.94
2022-10-19T11:04:37.050Z,94990.06
2022-10-19T11:05:43.107Z,94990.81
2022-10-19T11:06:54.835Z,94993.84
2022-10-19T11:08:33.623Z,94997.72
2022-10-19T11:09:42.211Z,94995.00
2022-10-19T11:10:51.251Z,94999.84
2022-10-19T11:11:56.139Z,94997.25
2022-10-19T11:13:23.635Z,94997.59
2022-10-19T11:14:46.906Z,95001.66
2022-10-19T11:15:56.078Z,94989.63
2022-10-19T11:17:06.001Z,94993.91
2022-10-19T11:18:10.329Z,94988.31
2022-10-19T11:19:17.758Z,94987.56
2022-10-19T11:20:19.593Z,94984.19
2022-10-19T11:21:39.202Z,94981.22
2022-10-19T11:22:43.690Z,94985.28
2022-10-19T11:24:00.215Z,94979.50
2022-10-19T11:25:32.827Z,94983.63
2022-10-19T11:26:50.490Z,94982.31
2022-10-19T11:28:21.197Z,94977.47
2022-10-19T11:30:00.407Z,94977.13
2022-10-19T11:31:19.194Z,94976.38
2022-10-19T11:32:50.095Z,94974.16
2022-10-19T11:34:00.350Z,94973.41
2022-10-19T11:35:20.156Z,94977.53
2022-10-19T11:36:49.034Z,94968.91
2022-10-19T11:38:24.166Z,94970.22
2022-10-19T11:39:40.752Z,94974.94
2022-10-19T11:41:23.860Z,94963.31
2022-10-19T11:42:34.396Z,94965.25
2022-10-19T11:43:57.801Z,94963.53
2022-10-19T11:45:32.111Z,94960.72
2022-10-19T11:47:06.405Z,94957.94
2022-10-19T11:48:43.773Z,94957.19
2022-10-19T11:50:22.694Z,94954.44
2022-10-19T11:51:43.068Z,94953.34
2022-10-19T11:52:50.444Z,94948.50
2022-10-19T11:54:01.441Z,94947.41
2022-10-19T11:55:08.745Z,94940.69
2022-10-19T11:56:17.400Z,94942.56
2022-10-19T11:57:27.593Z,94948.56
2022-10-19T11:58:42.230Z,94935.84
2022-10-19T12:00:14.535Z,94932.13
2022-10-19T12:01:40.364Z,94938.84
2022-10-19T12:02:50.878Z,94927.25
2022-10-19T12:04:23.394Z,94931.16
2022-10-19T12:05:30.874Z,94929.84
2022-10-19T12:06:35.448Z,94926.53
2022-10-19T12:08:02.927Z,94925.78
2022-10-19T12:09:12.096Z,94928.34
2022-10-19T12:10:25.615Z,94926.47
2022-10-19T12:11:45.691Z,94929.44
2022-10-19T12:12:55.401Z,94928.19
2022-10-19T12:14:09.290Z,94922.56
2022-10-19T12:15:23.643Z,94924.06
2022-10-19T12:16:35.972Z,94929.84
2022-10-19T12:17:39.452Z,94927.25
2022-10-19T12:18:48.822Z,94929.84
2022-10-19T12:19:55.665Z,94936.97
2022-10-19T12:21:01.310Z,94923.50
2022-10-19T12:22:07.023Z,94927.06
2022-10-19T12:23:23.602Z,94932.47
2022-10-19T12:24:26.398Z,94925.78
2022-10-19T12:25:28.582Z,94937.72
2022-10-19T12:26:35.558Z,94929.09
2022-10-19T12:27:40.085Z,94923.50
2022-10-19T12:28:47.482Z,94924.25
2022-10-19T12:29:50.063Z,94914.59
2022-10-19T12:30:53.313Z,94925.78
2022-10-19T12:31:57.271Z,94925.56
2022-10-19T12:33:28.167Z,94922.75
2022-10-19T12:34:51.209Z,94924.25
2022-10-19T12:36:04.343Z,94918.88
2022-10-19T12:37:39.829Z,94924.25
2022-10-19T12:39:06.297Z,94921.44
2022-10-19T12:40:23.562Z,94918.66
2022-10-19T12:42:04.085Z,94920.91
2022-10-19T12:43:28.005Z,94917.38
2022-10-19T12:44:53.758Z,94920.91
2022-10-19T12:46:49.905Z,94922.41
2022-10-19T12:48:14.446Z,94920.91
2022-10-19T12:49:31.133Z,94912.66
2022-10-19T12:50:56.725Z,94911.56
2022-10-19T12:51:59.894Z,94914.75
2022-10-19T12:53:01.476Z,94916.81
2022-10-19T12:54:09.631Z,94912.88
2022-10-19T12:55:34.790Z,94924.06
2022-10-19T12:56:48.631Z,94919.44
2022-10-19T12:57:59.426Z,94922.97
2022-10-19T12:59:01.853Z,94913.47
2022-10-19T13:00:20.274Z,94909.34
2022-10-19T13:01:29.639Z,94916.41
2022-10-19T13:02:35.371Z,94915.84
2022-10-19T13:03:40.573Z,94917.38
2022-10-19T13:04:53.341Z,94918.66
2022-10-19T13:06:00.845Z,94908.97
2022-10-19T13:07:10.929Z,94913.84
2022-10-19T13:08:28.633Z,94915.84
2022-10-19T13:09:31.805Z,94909.72
2022-10-19T13:10:33.916Z,94916.25
2022-10-19T13:11:38.359Z,94909.16
2022-10-19T13:12:46.302Z,94901.88